Time;durP1;ratioP1;P1;durP2;ratioP2;P2;SDS_P1;SDS_P2;PMS_P1;PMS_P2;Temp;Humidity;BMP_temperature;BMP_pressure;BME280_temperature;BME280_humidity;BME280_pressure;Samples;Min_cycle;Max_cycle;Signal;HPM_P1;HPM_P2
2022/07/01 00:02:14;;;;;;;;;;;;;;;;;;;;;
2022/07/01 00:05:26;;;;;;;;;;;;;;;;;;;;;
2022/07/01 00:11:27;;;;;;;;;2.00;1.00;;;;;15.19;66.85;101388.84;5977723;23;45468;-92
2022/07/01 00:17:33;;;;;;;;;1.00;1.00;;;;;15.17;66.48;101384.53;5973668;23;45609;-93
2022/07/01 00:20:28;;;;;;;;;;;;;;;;;;;;;
2022/07/01 00:23:43;;;;;;;;;;;;;;;;;;;;;
2022/07/01 00:26:50;;;;;;;;;;;;;;;;;;;;;
2022/07/01 00:32:39;;;;;;;;;4.00;0.75;;;;;15.21;66.55;101407.13;6025555;23;45384;-92
2022/07/01 00:38:24;;;;;;;;;;;;;;;;;;;;;
2022/07/01 00:41:13;;;;;;;;;;;;;;;;;;;;;
2022/07/01 00:44:22;;;;;;;;;1.00;1.00;;;;;15.31;66.33;101416.34;6233094;22;68990;-94
2022/07/01 00:50:32;;;;;;;;;1.75;1.00;;;;;15.26;66.93;101415.66;6207640;22;46346;-93
2022/07/01 00:53:34;;;;;;;;;1.25;1.25;;;;;15.24;66.85;101417.50;6212957;22;45288;-92
2022/07/01 00:56:43;;;;;;;;;1.25;1.00;;;;;15.21;66.92;101421.09;6212915;22;45248;-92
2022/07/01 01:05:48;;;;;;;;;;;;;;;;;;;;;
2022/07/01 01:08:28;;;;;;;;;1.25;1.25;;;;;15.04;67.66;101424.34;6084473;23;69219;-91
2022/07/01 01:14:12;;;;;;;;;;;;;;;;;;;;;
2022/07/01 01:25:50;;;;;;;;;3.00;2.00;;;;;14.94;67.62;101433.44;6185713;22;45843;-92
2022/07/01 01:28:46;;;;;;;;;2.25;2.00;;;;;14.89;67.59;101436.25;6189750;22;45397;-92
2022/07/01 01:31:50;;;;;;;;;1.75;1.75;;;;;14.88;67.92;101445.00;6098023;23;45405;-91
2022/07/01 01:34:35;;;;;;;;;;;;;;;;;;;;;
2022/07/01 01:37:17;;;;;;;;;2.00;2.00;;;;;14.73;68.08;101442.06;6121601;23;74614;-92
2022/07/01 01:40:13;;;;;;;;;2.50;1.25;;;;;14.69;68.23;101442.19;6163503;23;45295;-92
2022/07/01 01:42:56;;;;;;;;;1.00;1.00;;;;;14.68;68.66;101450.09;6153992;23;45426;-92
2022/07/01 01:45:48;;;;;;;;;3.50;2.00;;;;;14.62;68.39;101451.16;6159017;23;45495;-92
2022/07/01 01:48:28;;;;;;;;;2.25;2.25;;;;;14.57;68.55;101447.84;6156435;23;47221;-92
2022/07/01 01:54:32;;;;;;;;;2.00;1.25;;;;;14.59;68.42;101463.50;6182411;23;45185;-92
2022/07/01 01:57:04;;;;;;;;;2.00;2.00;;;;;14.57;68.83;101460.94;6133189;23;45367;-91
2022/07/01 01:59:57;;;;;;;;;;;;;;;;;;;;;
2022/07/01 02:05:36;;;;;;;;;2.00;2.00;;;;;14.60;68.29;101460.84;6156261;23;45233;-92
2022/07/01 02:08:52;;;;;;;;;;;;;;;;;;;;;
2022/07/01 02:11:42;;;;;;;;;;;;;;;;;;;;;
2022/07/01 02:17:34;;;;;;;;;;;;;;;;;;;;;
2022/07/01 02:20:33;;;;;;;;;2.50;1.50;;;;;14.49;68.87;101469.03;6212195;22;69578;-91
2022/07/01 02:23:27;;;;;;;;;;;;;;;;;;;;;
2022/07/01 02:26:14;;;;;;;;;3.50;2.00;;;;;14.39;68.93;101472.00;6190280;22;71503;-91
2022/07/01 02:28:44;;;;;;;;;3.50;3.00;;;;;14.38;69.38;101467.69;6212158;22;45311;-91
2022/07/01 02:31:17;;;;;;;;;4.75;2.50;;;;;14.41;68.85;101470.19;6212673;22;45714;-91
2022/07/01 02:34:05;;;;;;;;;;;;;;;;;;;;;
2022/07/01 02:36:49;;;;;;;;;3.00;2.25;;;;;14.41;69.18;101481.53;6123019;22;72271;-92
2022/07/01 02:39:29;;;;;;;;;;;;;;;;;;;;;
2022/07/01 02:42:26;;;;;;;;;3.75;2.50;;;;;14.38;68.83;101479.00;6305960;22;70545;-91
2022/07/01 02:45:18;;;;;;;;;5.25;2.50;;;;;14.41;69.16;101486.78;6312492;22;47188;-92
2022/07/01 02:48:04;;;;;;;;;;;;;;;;;;;;;
2022/07/01 02:52:02;;;;;;;;;;;;;;;;;;;;;
2022/07/01 03:00:15;;;;;;;;;3.00;3.00;;;;;14.28;69.63;101494.19;6197702;22;45192;-93
2022/07/01 03:03:07;;;;;;;;;3.00;3.00;;;;;14.26;68.96;101493.38;6188271;22;45244;-90
2022/07/01 03:09:33;;;;;;;;;;;;;;;;;;;;;
2022/07/01 03:12:34;;;;;;;;;;;;;;;;;;;;;
2022/07/01 03:15:31;;;;;;;;;2.50;2.50;;;;;14.13;69.59;101497.28;6206808;22;46667;-90
2022/07/01 03:17:58;;;;;;;;;4.50;3.00;;;;;14.11;69.62;101499.97;6152421;23;45819;-91
2022/07/01 03:20:53;;;;;;;;;;;;;;;;;;;;;
2022/07/01 03:23:40;;;;;;;;;;;;;;;;;;;;;
2022/07/01 03:29:58;;;;;;;;;4.75;2.00;;;;;14.09;69.41;101512.22;6146285;22;46723;-89
2022/07/01 03:32:42;;;;;;;;;3.75;3.75;;;;;14.10;69.49;101513.09;6190001;22;46154;-91
2022/07/01 03:35:49;;;;;;;;;;;;;;;;;;;;;
2022/07/01 03:38:34;;;;;;;;;;;;;;;;;;;;;
2022/07/01 03:41:12;;;;;;;;;4.00;2.50;;;;;14.02;69.63;101525.53;6189317;22;70339;-90
2022/07/01 03:43:38;;;;;;;;;3.00;3.00;;;;;13.98;69.35;101524.78;6164192;22;47162;-87
2022/07/01 03:46:30;;;;;;;;;2.75;2.00;;;;;13.92;70.01;101523.22;6162799;22;45295;-93
2022/07/01 03:51:45;;;;;;;;;3.50;1.00;;;;;13.80;70.23;101527.94;6101905;23;45605;-91
2022/07/01 03:54:40;;;;;;;;;2.50;2.00;;;;;13.78;70.70;101540.22;6153096;22;45446;-92
2022/07/01 03:57:14;;;;;;;;;2.50;1.00;;;;;13.66;70.57;101538.84;6212643;22;45566;-92
2022/07/01 03:59:51;;;;;;;;;;;;;;;;;;;;;
2022/07/01 04:02:20;;;;;;;;;2.25;2.25;;;;;13.58;71.12;101546.91;6212634;22;70197;-90
2022/07/01 04:04:56;;;;;;;;;2.00;1.00;;;;;13.51;71.32;101547.97;6212836;22;45359;-90
2022/07/01 04:07:24;;;;;;;;;2.50;2.50;;;;;13.47;71.50;101546.34;6212801;22;45730;-90
2022/07/01 04:10:19;;;;;;;;;2.00;2.00;;;;;13.44;71.39;101556.91;6187515;22;45238;-92
2022/07/01 04:12:45;;;;;;;;;3.50;1.25;;;;;13.42;71.46;101548.22;6213231;22;45525;-91
2022/07/01 04:15:11;;;;;;;;;3.00;2.00;;;;;13.37;71.78;101543.13;6187842;22;45221;-92
2022/07/01 04:17:36;;;;;;;;;1.50;1.50;;;;;13.36;71.26;101551.88;6187538;22;45335;-93
2022/07/01 04:20:05;;;;;;;;;2.00;1.00;;;;;13.36;71.44;101549.25;6187979;22;45482;-91
2022/07/01 04:22:36;;;;;;;;;3.00;2.00;;;;;13.35;71.30;101556.25;6187608;22;45500;-91
2022/07/01 04:25:32;;;;;;;;;;;;;;;;;;;;;
2022/07/01 04:28:15;;;;;;;;;;;;;;;;;;;;;
2022/07/01 04:30:46;;;;;;;;;2.00;2.00;;;;;13.29;71.47;101558.13;6311659;22;69308;-93
2022/07/01 04:33:22;;;;;;;;;;;;;;;;;;;;;
2022/07/01 04:36:18;;;;;;;;;;;;;;;;;;;;;
2022/07/01 04:39:03;;;;;;;;;;;;;;;;;;;;;
2022/07/01 04:45:15;;;;;;;;;;;;;;;;;;;;;
2022/07/01 04:47:53;;;;;;;;;;;;;;;;;;;;;
2022/07/01 04:50:52;;;;;;;;;1.00;1.00;;;;;13.26;71.48;101564.31;6338750;22;72930;-91
2022/07/01 04:54:08;;;;;;;;;;;;;;;;;;;;;
2022/07/01 04:56:54;;;;;;;;;2.50;2.50;;;;;13.27;72.54;101573.00;6338946;22;69170;-91
2022/07/01 04:59:30;;;;;;;;;1.00;1.00;;;;;13.28;72.00;101574.72;6339292;22;45297;-92
2022/07/01 05:02:13;;;;;;;;;0.00;0.00;;;;;13.29;71.79;101585.13;6311979;22;45219;-91
2022/07/01 05:04:46;;;;;;;;;2.50;2.50;;;;;13.27;71.90;101584.31;6338343;22;44744;-91
2022/07/01 05:11:02;;;;;;;;;;;;;;;;;;;;;
2022/07/01 05:14:09;;;;;;;;;;;;;;;;;;;;;
2022/07/01 05:17:05;;;;;;;;;3.00;3.00;;;;;13.39;71.48;101591.03;6178016;23;70000;-91
2022/07/01 05:22:59;;;;;;;;;;;;;;;;;;;;;
2022/07/01 05:25:38;;;;;;;;;;;;;;;;;;;;;
2022/07/01 05:31:50;;;;;;;;;;;;;;;;;;;;;
2022/07/01 05:34:41;;;;;;;;;;;;;;;;;;;;;
2022/07/01 05:37:18;;;;;;;;;2.00;2.00;;;;;13.61;71.01;101593.03;6067316;23;73347;-93
2022/07/01 05:40:05;;;;;;;;;;;;;;;;;;;;;
2022/07/01 05:42:30;;;;;;;;;2.50;1.00;;;;;13.84;69.86;101588.03;6114709;23;71518;-93
2022/07/01 05:45:26;;;;;;;;;;;;;;;;;;;;;
2022/07/01 05:47:57;;;;;;;;;1.25;1.00;;;;;14.04;69.71;101600.53;6212123;22;73209;-93
2022/07/01 05:50:23;;;;;;;;;2.00;2.00;;;;;14.01;69.15;101598.00;6188165;22;45330;-93
2022/07/01 05:52:54;;;;;;;;;1.00;1.00;;;;;13.98;69.28;101599.84;6162560;22;45329;-92
2022/07/01 05:55:59;;;;;;;;;;;;;;;;;;;;;
2022/07/01 05:58:24;;;;;;;;;1.50;1.50;;;;;14.13;68.84;101608.09;6211228;22;72911;-92
2022/07/01 06:01:09;;;;;;;;;;;;;;;;;;;;;
2022/07/01 06:03:34;;;;;;;;;4.25;1.50;;;;;14.14;68.99;101596.72;6189444;22;68855;-92
2022/07/01 06:06:00;;;;;;;;;1.25;1.25;;;;;14.22;69.07;101601.72;6188193;22;46643;-95
2022/07/01 06:08:30;;;;;;;;;3.00;1.75;;;;;14.27;68.01;101604.22;6242618;22;45623;-95
2022/07/01 06:10:56;;;;;;;;;2.75;2.00;;;;;14.25;68.45;101600.78;6313858;22;45318;-94
2022/07/01 06:13:23;;;;;;;;;3.75;2.00;;;;;14.27;68.76;101604.22;6313256;22;45312;-95
2022/07/01 06:15:53;;;;;;;;;4.00;2.00;;;;;14.30;68.70;101611.94;6314771;22;45270;-93
2022/07/01 06:18:18;;;;;;;;;1.75;1.75;;;;;14.36;68.79;101609.16;6315474;22;45360;-96
2022/07/01 06:20:46;;;;;;;;;2.50;2.00;;;;;14.42;68.40;101615.97;6314030;22;45246;-95
2022/07/01 06:23:11;;;;;;;;;2.00;2.00;;;;;14.45;67.97;101615.84;6340491;22;45398;-95
2022/07/01 06:25:47;;;;;;;;;2.25;2.25;;;;;14.53;67.96;101612.09;6340578;22;47132;-95
2022/07/01 06:28:12;;;;;;;;;3.00;2.00;;;;;14.55;67.13;101609.44;6339128;22;45690;-94
2022/07/01 06:30:45;;;;;;;;;1.00;1.00;;;;;14.53;66.96;101609.47;6312495;22;45166;-95
2022/07/01 06:33:16;;;;;;;;;0.75;0.75;;;;;14.53;66.72;101619.97;6315329;22;45391;-96
2022/07/01 06:35:41;;;;;;;;;2.25;1.25;;;;;14.56;66.55;101619.03;6340361;22;46985;-96
2022/07/01 06:38:07;;;;;;;;;2.00;1.00;;;;;14.60;67.01;101622.41;6305514;22;45229;-96
2022/07/01 06:40:32;;;;;;;;;1.00;1.00;;;;;14.62;66.54;101625.88;6280909;22;45468;-96
2022/07/01 06:43:00;;;;;;;;;0.50;0.50;;;;;14.62;65.92;101626.72;6307509;22;45353;-94
2022/07/01 06:45:29;;;;;;;;;2.00;2.00;;;;;14.65;66.74;101625.75;6284934;22;45473;-96
2022/07/01 06:48:06;;;;;;;;;;;;;;;;;;;;;
2022/07/01 06:50:35;;;;;;;;;2.00;1.00;;;;;14.72;66.51;101624.66;6281606;22;68118;-96
2022/07/01 06:53:10;;;;;;;;;1.25;1.25;;;;;14.78;65.65;101634.09;6277816;22;45440;-96
2022/07/01 06:55:38;;;;;;;;;4.50;1.00;;;;;14.82;65.44;101628.72;6307223;22;45304;-96
2022/07/01 06:58:19;;;;;;;;;;;;;;;;;;;;;
2022/07/01 07:00:48;;;;;;;;;3.75;1.00;;;;;14.94;65.14;101631.84;6300658;22;69201;-96
2022/07/01 07:03:26;;;;;;;;;0.50;0.50;;;;;15.00;64.75;101637.72;6307251;22;45156;-96
2022/07/01 07:06:02;;;;;;;;;;;;;;;;;;;;;
2022/07/01 07:08:34;;;;;;;;;0.50;0.00;;;;;15.14;64.88;101637.28;6276054;22;72780;-96
2022/07/01 07:11:19;;;;;;;;;;;;;;;;;;;;;
2022/07/01 07:14:13;;;;;;;;;;;;;;;;;;;;;
2022/07/01 07:17:21;;;;;;;;;1.00;0.00;;;;;15.36;64.07;101632.16;6279187;22;74458;-96
2022/07/01 07:20:00;;;;;;;;;0.00;0.00;;;;;15.42;62.63;101638.94;6212811;22;45223;-96
2022/07/01 07:22:35;;;;;;;;;0.25;0.00;;;;;15.47;63.03;101634.38;6163038;22;45487;-96
2022/07/01 07:25:12;;;;;;;;;0.00;0.00;;;;;15.56;63.21;101631.44;6188428;22;45450;-96
2022/07/01 07:27:47;;;;;;;;;0.25;0.25;;;;;15.68;62.87;101627.53;6162601;22;47216;-96
2022/07/01 07:30:17;;;;;;;;;2.75;0.00;;;;;15.72;62.34;101626.50;6188883;22;45356;-94
2022/07/01 07:32:44;;;;;;;;;0.00;0.00;;;;;15.76;62.27;101628.13;6191656;22;45376;-94
2022/07/01 07:35:09;;;;;;;;;1.00;0.00;;;;;15.79;61.44;101625.41;6186809;22;45669;-94
2022/07/01 07:37:58;;;;;;;;;1.00;1.00;;;;;15.84;60.16;101627.84;6167480;22;47112;-96
2022/07/01 07:40:44;;;;;;;;;;;;;;;;;;;;;
2022/07/01 07:43:09;;;;;;;;;0.75;0.00;;;;;16.01;61.44;101624.59;6272657;22;67970;-92
2022/07/01 07:45:35;;;;;;;;;3.00;0.00;;;;;16.09;61.50;101625.16;6242694;22;45549;-91
2022/07/01 07:48:29;;;;;;;;;;;;;;;;;;;;;
2022/07/01 07:51:18;;;;;;;;;2.00;0.00;;;;;16.09;59.82;101625.16;6271370;22;71766;-94
2022/07/01 07:53:51;;;;;;;;;1.00;0.00;;;;;16.16;59.21;101626.66;6272408;22;45290;-93
2022/07/01 07:56:30;;;;;;;;;1.00;1.00;;;;;16.18;58.37;101621.34;6279979;22;45207;-93
2022/07/01 07:59:22;;;;;;;;;1.00;0.00;;;;;16.28;58.00;101624.47;6305465;22;45469;-92
2022/07/01 08:01:50;;;;;;;;;2.00;1.00;;;;;16.39;58.39;101617.00;6303878;22;45264;-93
2022/07/01 08:04:26;;;;;;;;;0.00;0.00;;;;;16.51;58.36;101629.69;6278305;22;45259;-92
2022/07/01 08:07:43;;;;;;;;;0.00;0.00;;;;;16.60;55.77;101628.44;6304719;22;45297;-93
2022/07/01 08:13:47;;;;;;;;;0.00;0.00;;;;;16.65;53.00;101632.59;6305593;22;45229;-93
2022/07/01 08:16:36;;;;;;;;;1.00;0.75;;;;;16.72;55.29;101638.47;6304560;22;45354;-93
2022/07/01 08:19:18;;;;;;;;;0.00;0.00;;;;;16.85;55.20;101632.75;6303466;22;45562;-93
2022/07/01 08:22:14;;;;;;;;;0.25;0.00;;;;;16.93;53.35;101646.44;6304318;22;46398;-92
2022/07/01 08:24:57;;;;;;;;;0.25;0.00;;;;;16.93;53.03;101647.28;6305425;22;45616;-93
2022/07/01 08:27:25;;;;;;;;;0.00;0.00;;;;;16.95;51.00;101652.47;6278079;22;45425;-92
2022/07/01 08:29:53;;;;;;;;;0.75;0.00;;;;;17.01;52.33;101647.84;6277833;22;45402;-93
2022/07/01 08:32:19;;;;;;;;;0.00;0.00;;;;;17.14;52.73;101636.78;6303771;22;45371;-92
2022/07/01 08:34:44;;;;;;;;;2.75;0.00;;;;;17.20;52.86;101640.03;6304313;22;45175;-92
2022/07/01 08:37:10;;;;;;;;;1.00;0.00;;;;;17.27;53.20;101640.59;6308437;22;45204;-93
2022/07/01 08:39:35;;;;;;;;;0.00;0.00;;;;;17.32;51.98;101641.28;6336026;22;45225;-93
2022/07/01 08:42:00;;;;;;;;;0.00;0.00;;;;;17.43;51.77;101653.97;6282544;22;47158;-89
2022/07/01 08:44:26;;;;;;;;;1.00;0.00;;;;;17.48;51.98;101644.09;6309038;22;45470;-92
2022/07/01 08:46:51;;;;;;;;;0.00;0.00;;;;;17.53;51.89;101646.53;6283642;22;45381;-91
2022/07/01 08:49:17;;;;;;;;;0.00;0.00;;;;;17.57;51.64;101651.59;6309439;22;45496;-91
2022/07/01 08:51:43;;;;;;;;;0.00;0.00;;;;;17.57;50.86;101651.59;6308904;22;48416;-91
2022/07/01 08:54:08;;;;;;;;;0.00;0.00;;;;;17.59;51.43;101649.75;6283264;22;45655;-91
2022/07/01 08:56:41;;;;;;;;;0.00;0.00;;;;;17.68;52.27;101652.91;6283488;22;45365;-91
2022/07/01 08:59:16;;;;;;;;;0.00;0.00;;;;;17.77;50.42;101657.75;6283482;22;45263;-91
2022/07/01 09:01:42;;;;;;;;;0.50;0.00;;;;;17.82;51.19;101658.41;6309000;22;47617;-92
2022/07/01 09:04:17;;;;;;;;;0.50;0.00;;;;;17.89;49.21;101665.16;6309096;22;45215;-91
2022/07/01 09:06:45;;;;;;;;;1.50;1.00;;;;;17.88;49.28;101660.78;6337898;22;45285;-91
2022/07/01 09:09:20;;;;;;;;;1.00;0.00;;;;;17.96;47.84;101663.09;6282851;22;45528;-91
2022/07/01 09:11:53;;;;;;;;;0.00;0.00;;;;;18.10;48.72;101670.38;6309278;22;45568;-90
2022/07/01 09:14:23;;;;;;;;;0.00;0.00;;;;;18.18;49.07;101655.94;6335280;22;45716;-92
2022/07/01 09:17:04;;;;;;;;;;;;;;;;;;;;;
2022/07/01 09:19:34;;;;;;;;;1.25;1.00;;;;;18.51;49.58;101660.50;6331487;22;71008;-91
2022/07/01 09:22:09;;;;;;;;;0.00;0.00;;;;;18.60;47.08;101668.94;6307190;22;46542;-90
2022/07/01 09:24:44;;;;;;;;;0.50;0.00;;;;;18.64;47.36;101673.97;6308945;22;45466;-92
2022/07/01 09:27:16;;;;;;;;;0.00;0.00;;;;;18.72;47.75;101668.31;6309084;22;45194;-92
2022/07/01 09:30:14;;;;;;;;;1.00;0.00;;;;;18.76;48.24;101680.47;6309051;22;45412;-92
2022/07/01 09:32:44;;;;;;;;;0.00;0.00;;;;;18.90;48.59;101683.28;6309817;22;48301;-92
2022/07/01 09:35:22;;;;;;;;;1.00;1.00;;;;;18.93;47.04;101675.22;6308944;22;45329;-89
2022/07/01 09:37:57;;;;;;;;;0.00;0.00;;;;;19.00;48.59;101670.53;6276596;22;45242;-90
2022/07/01 09:40:51;;;;;;;;;2.00;0.00;;;;;19.13;47.06;101668.97;6308545;22;45301;-93
2022/07/01 09:43:35;;;;;;;;;0.00;0.00;;;;;19.28;45.24;101687.63;6336410;22;45489;-90
2022/07/01 09:46:32;;;;;;;;;0.00;0.00;;;;;19.49;46.32;101672.47;6283156;22;45769;-91
2022/07/01 09:49:00;;;;;;;;;1.00;1.00;;;;;19.71;47.17;101678.31;6186295;22;45367;-90
2022/07/01 09:51:29;;;;;;;;;0.00;0.00;;;;;19.94;46.23;101671.00;6158789;22;45285;-91
2022/07/01 09:53:56;;;;;;;;;0.00;0.00;;;;;20.15;46.70;101670.78;6185054;22;47263;-90
2022/07/01 09:56:47;;;;;;;;;1.00;0.00;;;;;20.20;44.54;101674.03;6206647;22;45478;-89
2022/07/01 09:59:20;;;;;;;;;1.00;0.00;;;;;20.06;44.88;101672.16;6200709;22;45467;-90
2022/07/01 10:01:46;;;;;;;;;0.00;0.00;;;;;19.96;43.49;101668.28;6182970;22;45268;-90
2022/07/01 10:04:24;;;;;;;;;0.00;0.00;;;;;19.93;42.42;101664.03;6159046;22;47866;-90
2022/07/01 10:07:20;;;;;;;;;0.00;0.00;;;;;19.99;44.19;101670.75;6186877;22;45492;-89
2022/07/01 10:16:44;;;;;;;;;0.00;0.00;;;;;20.23;42.91;101689.72;5946393;23;46135;-92
2022/07/01 10:19:41;;;;;;;;;0.00;0.00;;;;;20.40;43.33;101680.88;5922124;23;45665;-94
2022/07/01 10:22:29;;;;;;;;;1.00;0.00;;;;;20.61;42.96;101679.69;5901549;23;45441;-89
2022/07/01 10:25:52;;;;;;;;;0.00;0.00;;;;;20.72;40.27;101671.16;5953468;23;45537;-87
2022/07/01 10:31:39;;;;;;;;;0.00;0.00;;;;;21.02;39.23;101671.19;6031934;23;45413;-87
2022/07/01 10:34:13;;;;;;;;;0.00;0.00;;;;;20.92;37.95;101680.59;6007026;23;45492;-91
2022/07/01 10:36:42;;;;;;;;;0.50;0.50;;;;;20.75;39.63;101683.38;6010252;23;45588;-92
2022/07/01 10:39:22;;;;;;;;;0.00;0.00;;;;;20.64;39.44;101676.03;6030796;23;45355;-88
2022/07/01 10:42:01;;;;;;;;;2.00;0.00;;;;;20.51;40.44;101678.47;6005834;23;45419;-89
2022/07/01 10:44:27;;;;;;;;;0.00;0.00;;;;;20.50;40.54;101674.09;6006234;23;45432;-89
2022/07/01 10:47:07;;;;;;;;;2.00;0.00;;;;;20.55;41.52;101665.94;6069822;23;45252;-89
2022/07/01 10:53:03;;;;;;;;;0.00;0.00;;;;;20.90;39.69;101673.69;6173294;22;45371;-90
2022/07/01 10:55:46;;;;;;;;;0.00;0.00;;;;;21.13;39.29;101675.84;6335654;22;45198;-93
2022/07/01 10:58:21;;;;;;;;;;;;;;;;;;;;;
2022/07/01 11:00:57;;;;;;;;;0.00;0.00;;;;;21.78;38.42;101680.81;6181150;22;74412;-92
2022/07/01 11:04:08;;;;;;;;;;;;;;;;;;;;;
2022/07/01 11:07:07;;;;;;;;;0.50;0.00;;;;;22.21;39.23;101678.16;6308588;22;69238;-91
2022/07/01 11:09:33;;;;;;;;;0.00;0.00;;;;;22.22;37.78;101676.34;6185104;22;45248;-89
2022/07/01 11:12:14;;;;;;;;;1.00;0.00;;;;;22.12;37.56;101684.03;6185288;22;46126;-90
2022/07/01 11:15:05;;;;;;;;;0.00;0.00;;;;;22.19;37.41;101687.13;6211487;22;45349;-92
2022/07/01 11:18:10;;;;;;;;;;;;;;;;;;;;;
2022/07/01 11:20:46;;;;;;;;;0.00;0.00;;;;;22.28;38.01;101683.09;6204087;22;70514;-93
2022/07/01 11:23:29;;;;;;;;;0.00;0.00;;;;;22.28;37.22;101688.41;6162273;22;48099;-93
2022/07/01 11:28:59;;;;;;;;;;;;;;;;;;;;;
2022/07/01 11:31:47;;;;;;;;;;;;;;;;;;;;;
2022/07/01 11:34:16;;;;;;;;;0.00;0.00;;;;;23.58;36.16;101673.63;6186713;22;75440;-91
2022/07/01 11:39:33;;;;;;;;;0.00;0.00;;;;;31.90;29.83;101690.09;6252711;22;45129;-88
2022/07/01 11:42:21;;;;;;;;;0.00;0.00;;;;;35.30;21.46;101702.50;6309537;22;45412;-89
2022/07/01 11:44:55;;;;;;;;;0.00;0.00;;;;;36.97;19.72;101700.78;6184038;22;57510;-91
2022/07/01 11:47:55;;;;;;;;;;;;;;;;;;;;;
2022/07/01 11:50:28;;;;;;;;;0.00;0.00;;;;;36.12;20.47;101701.53;6109264;22;68075;-89
2022/07/01 11:52:57;;;;;;;;;0.00;0.00;;;;;38.05;21.28;101692.25;6159044;22;45487;-88
2022/07/01 11:55:26;;;;;;;;;0.00;0.00;;;;;36.60;18.62;101694.56;6159614;22;47107;-89
2022/07/01 11:57:58;;;;;;;;;0.00;0.00;;;;;33.60;19.71;101700.44;6204147;22;45471;-90
2022/07/01 12:00:37;;;;;;;;;1.25;0.00;;;;;31.21;22.91;101701.59;6182147;22;45518;-88
2022/07/01 12:03:16;;;;;;;;;0.25;0.00;;;;;29.68;24.85;101704.06;6184415;22;45509;-89
2022/07/01 12:06:07;;;;;;;;;1.00;0.00;;;;;29.10;25.88;101700.50;6186573;22;46445;-89
2022/07/01 12:08:55;;;;;;;;;0.00;0.00;;;;;28.96;24.95;101698.25;6156852;22;45392;-90
2022/07/01 12:11:21;;;;;;;;;0.00;0.00;;;;;28.10;26.13;101701.47;6185172;22;45281;-89
2022/07/01 12:13:56;;;;;;;;;0.00;0.00;;;;;27.31;27.48;101704.69;6183880;22;45515;-90
2022/07/01 12:16:22;;;;;;;;;0.00;0.00;;;;;27.29;28.86;101711.16;6183265;22;46259;-87
2022/07/01 12:19:03;;;;;;;;;0.00;0.00;;;;;28.73;26.96;101708.38;6157252;22;45338;-88
2022/07/01 12:21:30;;;;;;;;;0.00;0.00;;;;;29.07;25.77;101703.47;6202941;22;45490;-87
2022/07/01 12:24:31;;;;;;;;;0.00;0.00;;;;;29.78;25.15;101693.34;6308158;22;45465;-87
2022/07/01 12:26:59;;;;;;;;;0.00;0.00;;;;;29.95;25.34;101697.09;6203548;22;46144;-91
2022/07/01 12:29:53;;;;;;;;;2.00;0.00;;;;;30.14;24.70;101696.97;6334898;22;45700;-89
2022/07/01 12:32:24;;;;;;;;;0.00;0.00;;;;;30.93;25.23;101697.34;6307891;22;45234;-88
2022/07/01 12:35:01;;;;;;;;;0.00;0.00;;;;;32.55;21.77;101701.09;6307687;22;45490;-88
2022/07/01 12:37:52;;;;;;;;;0.00;0.00;;;;;32.88;21.69;101689.53;6282185;22;47227;-92
2022/07/01 12:40:37;;;;;;;;;0.00;0.00;;;;;31.96;20.86;101701.03;6310569;22;45626;-89
2022/07/01 12:43:06;;;;;;;;;0.00;0.00;;;;;30.79;23.87;101688.78;6331580;22;45242;-89
2022/07/01 12:45:44;;;;;;;;;0.25;0.00;;;;;30.00;25.13;101690.28;6306501;22;45205;-89
2022/07/01 12:48:13;;;;;;;;;0.00;0.00;;;;;29.26;24.20;101686.53;6303377;22;48529;-89
2022/07/01 12:50:38;;;;;;;;;1.00;0.00;;;;;28.53;26.13;101683.44;6307740;22;45634;-89
2022/07/01 12:53:52;;;;;;;;;0.00;0.00;;;;;27.79;26.60;101682.72;6306990;22;51486;-91
2022/07/01 12:56:36;;;;;;;;;0.75;0.00;;;;;27.21;27.34;101679.72;6336114;22;45508;-90
2022/07/01 12:59:14;;;;;;;;;0.50;0.00;;;;;26.69;27.11;101700.09;6308791;22;45324;-92
2022/07/01 13:01:42;;;;;;;;;0.00;0.00;;;;;26.25;28.90;101697.38;6308749;22;45665;-89
2022/07/01 13:04:37;;;;;;;;;0.00;0.00;;;;;26.15;28.88;101707.94;6307191;22;55779;-89
2022/07/01 13:07:14;;;;;;;;;0.00;0.00;;;;;26.59;28.85;101697.28;6213523;22;45494;-90
2022/07/01 13:09:53;;;;;;;;;0.00;0.00;;;;;26.88;29.59;101707.44;6213856;22;48044;-88
2022/07/01 13:12:18;;;;;;;;;0.50;0.00;;;;;27.15;27.46;101709.63;6215156;22;45744;-89
2022/07/01 13:14:46;;;;;;;;;1.25;0.00;;;;;27.84;26.18;101708.22;6233257;22;45437;-88
2022/07/01 13:17:39;;;;;;;;;2.00;0.00;;;;;28.65;27.10;101708.25;6239711;22;45300;-92
2022/07/01 13:20:06;;;;;;;;;1.00;0.00;;;;;30.69;23.58;101704.16;6240036;22;46492;-89
2022/07/01 13:22:45;;;;;;;;;;;;;;;;;;;;;
2022/07/01 13:25:11;;;;;;;;;0.00;0.00;;;;;33.83;19.99;101705.94;6160892;22;67375;-91
2022/07/01 13:27:37;;;;;;;;;1.00;0.00;;;;;35.94;17.64;101707.34;6214142;22;45248;-90
2022/07/01 13:30:11;;;;;;;;;0.00;0.00;;;;;38.94;20.24;101711.28;6239234;22;47007;-90
2022/07/01 13:32:40;;;;;;;;;0.00;0.00;;;;;38.09;16.15;101706.31;6239148;22;45312;-89
2022/07/01 13:41:54;;;;;;;;;;;;;;;;;;;;;
2022/07/01 13:44:49;;;;;;;;;0.00;0.00;;;;;36.04;16.34;101716.88;6192331;22;73046;-92
2022/07/01 13:47:24;;;;;;;;;;;;;;;;;;;;;
2022/07/01 13:54:01;;;;;;;;;0.00;0.00;;;;;36.08;17.81;101725.47;6121205;23;45511;-94
2022/07/01 13:57:50;;;;;;;;;;;;;;;;;;;;;
2022/07/01 13:59:42;;;;;;;;;0.00;0.00;;;;;39.57;13.30;101728.00;6191039;22;45355;-91
2022/07/01 14:02:23;;;;;;;;;;;;;;;;;;;;;
2022/07/01 14:05:12;;;;;;;;;0.00;0.00;;;;;38.75;15.17;101730.13;6177768;22;75786;-92
2022/07/01 14:07:53;;;;;;;;;;;;;;;;;;;;;
2022/07/01 14:10:37;;;;;;;;;;;;;;;;;;;;;
2022/07/01 14:13:22;;;;;;;;;0.00;0.00;;;;;38.23;16.55;101721.63;6184343;22;69340;-90
2022/07/01 14:15:53;;;;;;;;;0.00;0.00;;;;;36.12;16.28;101731.34;6285206;22;45640;-90
2022/07/01 14:18:19;;;;;;;;;0.00;0.00;;;;;34.00;18.32;101725.63;6282681;22;45808;-90
2022/07/01 14:20:47;;;;;;;;;0.00;0.00;;;;;32.34;20.32;101730.34;6307621;22;45404;-90
2022/07/01 14:23:13;;;;;;;;;0.00;0.00;;;;;31.07;20.83;101734.41;6307466;22;47698;-89
2022/07/01 14:25:56;;;;;;;;;0.00;0.00;;;;;30.09;21.95;101729.66;6281101;22;47873;-90
2022/07/01 14:28:22;;;;;;;;;0.00;0.00;;;;;29.58;22.54;101730.94;6309139;22;45536;-90
2022/07/01 14:30:54;;;;;;;;;0.00;0.00;;;;;29.27;23.78;101723.09;6309162;22;45415;-90
2022/07/01 14:33:28;;;;;;;;;0.00;0.00;;;;;29.06;23.72;101723.22;6309423;22;45333;-91
2022/07/01 14:36:26;;;;;;;;;0.00;0.00;;;;;28.87;24.40;101721.38;6308788;22;47005;-91
2022/07/01 14:39:27;;;;;;;;;0.00;0.00;;;;;29.31;23.56;101718.31;6281745;22;45698;-91
2022/07/01 14:41:52;;;;;;;;;0.00;0.00;;;;;28.73;24.36;101722.66;6314886;22;45225;-90
2022/07/01 14:44:52;;;;;;;;;;;;;;;;;;;;;
2022/07/01 14:47:25;;;;;;;;;0.00;0.00;;;;;27.93;25.24;101720.84;6254115;22;76186;-91
2022/07/01 14:50:20;;;;;;;;;0.00;0.00;;;;;27.60;24.62;101720.94;6309320;22;45473;-91
2022/07/01 14:53:14;;;;;;;;;;;;;;;;;;;;;
2022/07/01 14:55:49;;;;;;;;;0.00;0.00;;;;;27.17;26.50;101723.69;6310650;22;69257;-88
2022/07/01 14:58:15;;;;;;;;;0.00;0.00;;;;;27.31;27.54;101719.91;6283099;22;47496;-90
2022/07/01 15:00:46;;;;;;;;;0.00;0.00;;;;;27.30;26.41;101718.19;6309634;22;45627;-90
2022/07/01 15:03:21;;;;;;;;;0.00;0.00;;;;;27.15;26.50;101717.63;6310595;22;45231;-90
2022/07/01 15:05:52;;;;;;;;;0.00;0.00;;;;;27.05;26.37;101714.88;6312391;22;45185;-90
2022/07/01 15:08:43;;;;;;;;;;;;;;;;;;;;;
2022/07/01 15:11:32;;;;;;;;;0.00;0.00;;;;;26.52;26.96;101712.94;6281768;22;73937;-94
2022/07/01 15:14:00;;;;;;;;;0.00;0.00;;;;;27.28;25.06;101712.13;6339959;22;45309;-93
2022/07/01 15:16:25;;;;;;;;;0.00;0.00;;;;;27.43;25.86;101705.47;6338239;22;45187;-93
2022/07/01 15:18:54;;;;;;;;;0.00;0.00;;;;;27.78;26.54;101704.25;6310441;22;48061;-94
2022/07/01 15:24:17;;;;;;;;;0.00;0.00;;;;;28.37;26.66;101700.84;6239147;22;45419;-90
2022/07/01 15:26:52;;;;;;;;;0.00;0.00;;;;;28.29;26.04;101708.72;6242956;22;45469;-92
2022/07/01 15:30:47;;;;;;;;;;;;;;;;;;;;;
2022/07/01 15:33:58;;;;;;;;;;;;;;;;;;;;;
2022/07/01 15:36:55;;;;;;;;;;;;;;;;;;;;;
2022/07/01 15:40:06;;;;;;;;;;;;;;;;;;;;;
2022/07/01 15:50:24;;;;;;;;;;;;;;;;;;;;;
2022/07/01 15:52:59;;;;;;;;;0.00;0.00;;;;;27.64;24.87;101705.47;5930651;24;69577;-94
2022/07/01 15:55:40;;;;;;;;;;;;;;;;;;;;;
2022/07/01 16:01:27;;;;;;;;;0.00;0.00;;;;;26.72;27.77;101713.19;5838622;24;45316;-92
2022/07/01 16:05:04;;;;;;;;;0.50;0.00;;;;;26.63;26.02;101712.13;5839251;24;45232;-93
2022/07/01 16:07:32;;;;;;;;;;;;;;;;;;;;;
2022/07/01 16:13:43;;;;;;;;;0.00;0.00;;;;;26.84;25.71;101710.34;5840616;24;45413;-94
2022/07/01 16:16:33;;;;;;;;;0.00;0.00;;;;;26.71;26.74;101715.03;5836945;24;45608;-92